createdAt,value
2023-10-20T00:02:05.159Z,16.83
2023-10-20T00:05:47.385Z,16.20
2023-10-20T00:09:30.505Z,13.10
2023-10-20T00:13:12.842Z,11.30
2023-10-20T00:16:54.941Z,16.30
2023-10-20T00:20:37.118Z,15.55
2023-10-20T00:24:19.125Z,11.38
2023-10-20T00:28:01.533Z,17.30
2023-10-20T00:31:43.596Z,10.35
2023-10-20T00:35:25.754Z,11.98
2023-10-20T00:39:07.811Z,14.00
2023-10-20T00:42:50.836Z,13.00
2023-10-20T00:46:33.246Z,13.07
2023-10-20T00:50:17.161Z,10.40
2023-10-20T00:54:01.093Z,14.77
2023-10-20T00:57:47.341Z,13.38
2023-10-20T01:01:29.785Z,17.10
2023-10-20T01:05:16.062Z,12.57
2023-10-20T01:08:58.563Z,18.65
2023-10-20T01:12:41.378Z,19.30
2023-10-20T01:16:24.675Z,10.53
2023-10-20T01:20:07.734Z,12.98
2023-10-20T01:23:54.715Z,10.50
2023-10-20T01:27:36.876Z,15.87
2023-10-20T01:31:18.869Z,11.35
2023-10-20T01:35:01.842Z,10.60
2023-10-20T01:38:44.503Z,13.27
2023-10-20T01:42:26.547Z,11.18
2023-10-20T01:46:08.500Z,14.85
2023-10-20T01:49:50.963Z,14.30
2023-10-20T01:53:33.942Z,11.63
2023-10-20T01:57:16.227Z,11.85
2023-10-20T02:00:58.902Z,9.68
2023-10-20T02:04:41.034Z,8.70
2023-10-20T02:08:23.027Z,4.40
2023-10-20T02:12:05.750Z,5.70
2023-10-20T02:15:48.689Z,4.43
2023-10-20T02:19:30.704Z,8.60
2023-10-20T02:23:12.898Z,8.95
2023-10-20T02:26:55.138Z,5.45
2023-10-20T02:30:37.092Z,5.93
2023-10-20T02:34:19.200Z,7.57
2023-10-20T02:38:01.283Z,9.15
2023-10-20T02:41:43.435Z,7.00
2023-10-20T02:45:25.553Z,7.57
2023-10-20T02:49:07.647Z,6.97
2023-10-20T02:52:49.654Z,5.57
2023-10-20T02:56:31.667Z,11.02
2023-10-20T03:00:19.340Z,7.47
2023-10-20T03:04:01.591Z,9.20
2023-10-20T03:07:43.793Z,8.17
2023-10-20T03:11:25.868Z,5.00
2023-10-20T03:15:10.216Z,5.18
2023-10-20T03:18:52.155Z,5.30
2023-10-20T03:22:34.105Z,6.13
2023-10-20T03:26:16.924Z,6.43
2023-10-20T03:29:59.053Z,4.43
2023-10-20T03:33:41.988Z,5.57
2023-10-20T03:37:24.084Z,5.32
2023-10-20T03:41:11.252Z,6.28
2023-10-20T03:44:53.355Z,10.33
2023-10-20T03:48:36.431Z,6.45
2023-10-20T03:52:20.053Z,4.78
2023-10-20T03:56:04.359Z,4.53
2023-10-20T03:59:48.054Z,6.28
2023-10-20T04:03:33.484Z,5.82
2023-10-20T04:07:16.388Z,5.82
2023-10-20T04:10:59.669Z,6.65
2023-10-20T04:14:42.874Z,6.95
2023-10-20T04:18:25.457Z,5.20
2023-10-20T04:22:14.122Z,6.23
2023-10-20T04:25:56.524Z,5.28
2023-10-20T04:29:49.050Z,4.90
2023-10-20T04:33:49.948Z,5.27
2023-10-20T04:37:50.796Z,6.80
2023-10-20T04:41:56.426Z,5.35
2023-10-20T04:45:56.987Z,5.45
2023-10-20T04:49:51.128Z,7.85
2023-10-20T04:53:52.029Z,7.63
2023-10-20T04:57:52.214Z,4.53
2023-10-20T05:01:50.975Z,4.77
2023-10-20T05:05:42.535Z,4.60
2023-10-20T05:09:26.571Z,5.72
2023-10-20T05:13:08.538Z,4.53
2023-10-20T05:16:50.548Z,5.53
2023-10-20T05:20:33.318Z,5.97
2023-10-20T05:24:15.438Z,5.43
2023-10-20T05:27:57.495Z,5.68
2023-10-20T05:31:39.948Z,5.43
2023-10-20T05:35:22.099Z,4.32
2023-10-20T05:39:04.333Z,5.27
2023-10-20T05:42:46.471Z,5.60
2023-10-20T05:46:30.394Z,7.20
2023-10-20T05:50:13.079Z,5.70
2023-10-20T05:53:55.119Z,6.72
2023-10-20T05:57:37.162Z,5.60
2023-10-20T06:01:19.813Z,5.60
2023-10-20T06:05:02.519Z,5.03
2023-10-20T06:08:45.305Z,5.30
2023-10-20T06:12:27.416Z,6.07
2023-10-20T06:16:11.554Z,5.17
2023-10-20T06:19:54.331Z,6.72
2023-10-20T06:23:36.573Z,5.47
2023-10-20T06:27:18.649Z,6.10
2023-10-20T06:31:23.699Z,5.18
2023-10-20T06:35:06.330Z,6.88
2023-10-20T06:38:48.443Z,6.10
2023-10-20T06:42:30.856Z,5.00
2023-10-20T06:46:13.109Z,5.82
2023-10-20T06:49:55.230Z,6.18
2023-10-20T06:53:37.590Z,5.93
2023-10-20T06:57:21.582Z,5.57
2023-10-20T07:01:07.359Z,5.70
2023-10-20T07:04:52.631Z,5.97
2023-10-20T07:08:35.323Z,7.18
2023-10-20T07:12:17.408Z,5.75
2023-10-20T07:16:00.296Z,7.03
2023-10-20T07:19:42.779Z,6.55
2023-10-20T07:23:25.229Z,7.40
2023-10-20T07:27:12.081Z,8.02
2023-10-20T07:30:55.188Z,8.17
2023-10-20T07:34:37.645Z,7.68
2023-10-20T07:38:28.595Z,7.47
2023-10-20T07:42:11.045Z,6.53
2023-10-20T07:45:53.428Z,6.85
2023-10-20T07:49:42.500Z,5.20
2023-10-20T07:53:24.680Z,5.47
2023-10-20T07:57:08.434Z,6.20
2023-10-20T08:00:56.634Z,4.40
2023-10-20T08:04:38.961Z,4.10
2023-10-20T08:08:23.731Z,4.57
2023-10-20T08:12:13.761Z,3.85
2023-10-20T08:15:56.471Z,3.80
2023-10-20T08:19:38.751Z,5.30
2023-10-20T08:23:29.705Z,5.18
2023-10-20T08:27:12.598Z,5.03
2023-10-20T08:31:23.691Z,4.97
2023-10-20T08:35:09.725Z,5.90
2023-10-20T08:38:53.138Z,5.03
2023-10-20T08:42:40.035Z,6.65
2023-10-20T08:46:24.808Z,4.73
2023-10-20T08:58:32.621Z,6.00
2023-10-20T09:02:14.858Z,4.88
2023-10-20T09:06:43.135Z,5.03
2023-10-20T09:10:56.211Z,5.80
2023-10-20T09:14:42.537Z,5.53
2023-10-20T09:22:32.189Z,4.80
2023-10-20T09:27:01.230Z,3.10
2023-10-20T09:31:11.711Z,2.83
2023-10-20T09:34:55.804Z,3.90
2023-10-20T09:39:05.364Z,2.73
2023-10-20T09:42:56.964Z,3.80
2023-10-20T09:47:18.997Z,3.50
2023-10-20T09:55:10.386Z,2.95
2023-10-20T10:03:10.388Z,3.13
2023-10-20T10:10:57.891Z,3.10
2023-10-20T10:15:15.350Z,4.40
2023-10-20T10:23:17.022Z,6.53
2023-10-20T10:31:14.008Z,6.35
2023-10-20T10:44:30.264Z,6.63
2023-10-20T10:48:14.533Z,7.85
2023-10-20T10:52:42.629Z,7.60
2023-10-20T11:00:38.773Z,7.25
2023-10-20T11:17:21.143Z,9.25
2023-10-20T11:25:07.232Z,10.63
2023-10-20T11:28:50.946Z,10.30
2023-10-20T11:32:57.933Z,11.97
2023-10-20T11:36:40.316Z,9.43
2023-10-20T11:40:51.079Z,10.38
2023-10-20T11:44:33.738Z,11.67
2023-10-20T11:52:27.906Z,10.55
2023-10-20T11:56:56.328Z,12.02
2023-10-20T12:01:07.322Z,10.98
2023-10-20T12:04:49.501Z,11.23
2023-10-20T12:09:00.181Z,13.85
2023-10-20T12:12:42.507Z,10.13
2023-10-20T12:20:36.835Z,14.38
2023-10-20T12:24:48.072Z,10.93
2023-10-20T12:28:30.829Z,11.93
2023-10-20T12:32:59.346Z,10.18
2023-10-20T12:37:12.475Z,8.80
2023-10-20T12:40:54.625Z,7.68
2023-10-20T12:45:22.193Z,5.93
2023-10-20T12:49:50.402Z,7.32
2023-10-20T12:54:03.439Z,7.77
2023-10-20T12:57:46.345Z,6.95
2023-10-20T13:05:41.567Z,9.23
2023-10-20T13:09:51.705Z,6.80
2023-10-20T13:13:33.859Z,6.28
2023-10-20T13:26:00.539Z,6.60
2023-10-20T13:30:28.487Z,7.75
2023-10-20T13:34:57.119Z,9.03
2023-10-20T13:42:54.128Z,6.32
2023-10-20T13:55:14.742Z,6.57
2023-10-20T13:59:21.569Z,5.45
2023-10-20T14:03:04.936Z,6.75
2023-10-20T14:12:07.287Z,6.60
2023-10-20T14:16:21.285Z,6.37
2023-10-20T14:20:04.050Z,8.02
2023-10-20T14:27:58.622Z,10.07
2023-10-20T14:32:01.966Z,7.28
2023-10-20T14:35:44.722Z,11.70
2023-10-20T14:43:36.517Z,8.77
2023-10-20T14:51:31.687Z,7.78
2023-10-20T15:03:55.371Z,8.18
2023-10-20T15:08:07.259Z,8.47
2023-10-20T15:11:49.691Z,11.98
2023-10-20T15:19:35.674Z,10.27
2023-10-20T15:23:53.287Z,12.25
2023-10-20T15:27:35.540Z,8.85
2023-10-20T15:31:46.998Z,11.05
2023-10-20T15:35:29.799Z,11.37
2023-10-20T15:47:50.520Z,9.13
2023-10-20T15:55:47.776Z,8.90
2023-10-20T16:03:35.170Z,10.57
2023-10-20T16:07:51.274Z,9.38
2023-10-20T16:11:33.408Z,11.18
2023-10-20T16:19:26.080Z,15.18
2023-10-20T16:23:54.096Z,13.07
2023-10-20T16:28:07.241Z,11.70
2023-10-20T16:31:49.631Z,12.52
2023-10-20T16:35:57.503Z,9.82
2023-10-20T16:39:41.006Z,8.82
2023-10-20T16:43:52.015Z,12.02
2023-10-20T16:47:36.115Z,12.80
2023-10-20T16:52:04.143Z,12.23
2023-10-20T17:00:40.685Z,10.15
2023-10-20T17:04:23.584Z,11.60
2023-10-20T17:08:06.088Z,10.33
2023-10-20T17:11:48.929Z,12.32
2023-10-20T17:15:34.128Z,10.50
2023-10-20T17:19:16.295Z,9.20
2023-10-20T17:22:58.303Z,8.55
2023-10-20T17:26:40.597Z,13.95
2023-10-20T17:30:23.291Z,8.55
2023-10-20T17:34:05.439Z,10.80
2023-10-20T17:37:47.900Z,10.27
2023-10-20T17:41:29.843Z,9.32
2023-10-20T17:45:12.106Z,11.57
2023-10-20T17:48:54.080Z,10.82
2023-10-20T17:52:36.135Z,10.82
2023-10-20T17:56:18.625Z,9.13
2023-10-20T18:00:00.707Z,13.00
2023-10-20T18:03:44.272Z,12.55
2023-10-20T18:07:26.600Z,13.73
2023-10-20T18:11:10.272Z,12.70
2023-10-20T18:15:05.391Z,9.32
2023-10-20T18:18:52.270Z,10.70
2023-10-20T18:22:34.415Z,11.83
2023-10-20T18:26:16.493Z,11.68
2023-10-20T18:29:58.717Z,9.35
2023-10-20T18:33:41.515Z,13.52
2023-10-20T18:37:23.652Z,12.82
2023-10-20T18:41:13.219Z,13.50
2023-10-20T18:44:56.128Z,13.55
2023-10-20T18:48:38.479Z,14.60
2023-10-20T18:52:21.004Z,8.98
2023-10-20T18:56:07.852Z,10.52
2023-10-20T18:59:49.918Z,12.47
2023-10-20T19:03:35.333Z,12.40
2023-10-20T19:07:17.774Z,13.32
2023-10-20T19:11:11.770Z,10.95
2023-10-20T19:14:57.099Z,11.65
2023-10-20T19:18:39.454Z,14.60
2023-10-20T19:22:21.636Z,12.80
2023-10-20T19:26:09.135Z,11.47
2023-10-20T19:29:51.488Z,10.23
2023-10-20T19:33:33.605Z,11.60
2023-10-20T19:37:15.855Z,10.23
2023-10-20T19:40:58.962Z,18.63
2023-10-20T19:44:41.069Z,11.98
2023-10-20T19:48:23.254Z,13.25
2023-10-20T19:52:06.499Z,12.50
2023-10-20T19:55:48.496Z,15.73
2023-10-20T19:59:30.734Z,15.75
2023-10-20T20:03:12.910Z,13.43
2023-10-20T20:06:55.131Z,11.50
2023-10-20T20:10:37.242Z,14.00
2023-10-20T20:14:19.243Z,12.13
2023-10-20T20:18:01.338Z,13.57
2023-10-20T20:21:43.484Z,12.82
2023-10-20T20:25:25.506Z,13.27
2023-10-20T20:29:07.481Z,17.42
2023-10-20T20:32:49.608Z,12.52
2023-10-20T20:36:31.849Z,10.48
2023-10-20T20:40:13.831Z,10.30
2023-10-20T20:43:59.416Z,13.40
2023-10-20T20:47:42.045Z,10.73
2023-10-20T20:51:24.208Z,16.47
2023-10-20T20:55:06.549Z,16.08
2023-10-20T20:58:48.625Z,12.13
2023-10-20T21:02:30.661Z,12.38
2023-10-20T21:06:12.760Z,14.38
2023-10-20T21:09:54.837Z,14.38
2023-10-20T21:13:37.672Z,13.63
2023-10-20T21:17:19.947Z,13.83
2023-10-20T21:21:03.628Z,9.40
2023-10-20T21:24:45.668Z,13.15
2023-10-20T21:28:27.792Z,9.10
2023-10-20T21:32:10.026Z,11.88
2023-10-20T21:35:52.268Z,9.88
2023-10-20T21:39:34.521Z,13.98
2023-10-20T21:43:16.850Z,15.25
2023-10-20T21:46:58.821Z,11.77
2023-10-20T21:50:41.059Z,13.30
2023-10-20T21:54:23.113Z,13.50
2023-10-20T21:58:06.482Z,16.15
2023-10-20T22:01:58.129Z,16.27
2023-10-20T22:05:48.552Z,12.17
2023-10-20T22:09:38.264Z,10.95
2023-10-20T22:13:32.563Z,16.65
2023-10-20T22:17:14.966Z,12.70
2023-10-20T22:20:57.252Z,15.48
2023-10-20T22:24:39.450Z,14.57
2023-10-20T22:28:22.785Z,15.20
2023-10-20T22:32:05.245Z,11.37
2023-10-20T22:35:47.317Z,12.48
2023-10-20T22:39:29.409Z,9.50
2023-10-20T22:43:11.438Z,12.87
2023-10-20T22:46:53.496Z,9.13
2023-10-20T22:50:35.510Z,10.68
2023-10-20T22:54:17.736Z,13.93
2023-10-20T22:58:00.046Z,13.52
2023-10-20T23:01:42.124Z,10.70
2023-10-20T23:05:24.309Z,12.38
2023-10-20T23:09:06.504Z,11.57
2023-10-20T23:12:48.973Z,9.45
2023-10-20T23:16:31.121Z,11.00
2023-10-20T23:20:13.582Z,9.17
2023-10-20T23:23:56.718Z,14.00
2023-10-20T23:27:38.824Z,11.55
2023-10-20T23:31:20.852Z,13.07
2023-10-20T23:35:02.992Z,9.32
2023-10-20T23:38:45.271Z,10.27
2023-10-20T23:42:27.354Z,8.50
2023-10-20T23:46:09.460Z,11.40
2023-10-20T23:49:52.082Z,10.30
2023-10-20T23:53:34.113Z,12.80
2023-10-20T23:57:18.964Z,15.23
